ADDS METAR Data INFO
IDs: Format: Raw Decoded Include TAF

Data at: 1310 UTC 11 Dec 2017

KTVL 111253Z AUTO 19003KT 10SM CLR M10/M12 A3048 RMK AO2 SLP352 T11001122
KTVL 111153Z AUTO 19003KT 10SM CLR M09/M12 A3048 RMK AO2 SLP341 T10941117 11050 21094 51003
KTVL 111053Z AUTO 18003KT 10SM CLR M09/M11 A3048 RMK AO2 SLP325 T10891111
KTVL 110953Z AUTO 20003KT 10SM CLR M08/M11 A3047 RMK AO2 SLP322 T10831106
KTVL 110853Z AUTO 19004KT 10SM CLR M08/M10 A3047 RMK AO2 SLP319 T10781100 50003
KTVL 110753Z AUTO 00000KT 10SM CLR M07/M09 A3047 RMK AO2 SLP321 T10671094 401001100
KTVL 110653Z AUTO 20003KT 10SM CLR M06/M09 A3047 RMK AO2 SLP327 T10611094
KTVL 110553Z AUTO 00000KT 10SM CLR M05/M09 A3045 RMK AO2 SLP336 T10501089 10039 21050 51002
KTVL 110453Z AUTO 00000KT 10SM CLR M04/M08 A3045 RMK AO2 SLP345 T10441078
KTVL 110353Z AUTO 20003KT 10SM CLR M04/M07 A3045 RMK AO2 SLP353 T10391072
KTVL 110253Z AUTO 19004KT 10SM CLR M03/M07 A3045 RMK AO2 SLP349 T10281072 51008
KTVL 110153Z AUTO 18003KT 10SM CLR M02/M08 A3044 RMK AO2 SLP343 T10221078
KTVL 110053Z AUTO 00000KT 10SM CLR 01/M07 A3043 RMK AO2 SLP332 T00061072
KTVL 102353Z AUTO 00000KT 10SM CLR 04/M08 A3042 RMK AO2 SLP318 T00391083 10100 21011 55007
KTVL 102253Z AUTO 03003KT 10SM CLR 10/M11 A3042 RMK AO2 SLP299 T01001111
KTVL 102153Z AUTO 02004KT 10SM CLR 10/M08 A3042 RMK AO2 SLP302 T01001083
KTVL 102053Z AUTO 05005KT 10SM CLR 09/M08 A3044 RMK AO2 SLP309 T00941083 58020
KTVL 101953Z AUTO 05004KT 10SM CLR 08/M09 A3048 RMK AO2 SLP322 T00781089
KTVL 101853Z AUTO 07003KT 10SM CLR 04/M07 A3050 RMK AO2 SLP336 T00441072
KTVL 101753Z AUTO 00000KT 10SM CLR M02/M07 A3052 RMK AO2 SLP355 T10171067 11017 21100 50004
KTVL 101653Z AUTO 19003KT 10SM CLR M06/M09 A3052 RMK AO2 SLP366 T10561089
KTVL 101553Z AUTO 19004KT 10SM CLR M09/M12 A3051 RMK AO2 SLP372 T10941117
KTVL 101453Z AUTO 00000KT 10SM CLR M10/M12 A3050 RMK AO2 SLP366 T11001122 55001
KTVL 101353Z AUTO 00000KT 10SM CLR M09/M12 A3050 RMK AO2 SLP361 T10941117
KTVL 101253Z AUTO 18003KT 10SM CLR M09/M11 A3050 RMK AO2 SLP351 T10891111
KTVL 101153Z AUTO 19003KT 10SM CLR M08/M11 A3051 RMK AO2 SLP346 T10831106 11039 21083 55003
KTVL 101053Z AUTO 00000KT 10SM CLR M07/M09 A3051 RMK AO2 SLP333 T10721094
KTVL 100953Z AUTO 18004KT 10SM CLR M07/M09 A3051 RMK AO2 SLP336 T10671094
KTVL 100853Z AUTO 18005KT 10SM CLR M06/M08 A3052 RMK AO2 SLP335 T10611083 50002
KTVL 100753Z AUTO 23003KT 10SM CLR M06/M08 A3052 RMK AO2 SLP336 T10561078 400941094
KTVL 100653Z AUTO 00000KT 10SM CLR M04/M07 A3052 RMK AO2 SLP337 T10441072
KTVL 100553Z AUTO 19003KT 10SM CLR M04/M07 A3051 RMK AO2 SLP350 T10391067 10044 21039 53004
KTVL 100453Z AUTO 18003KT 10SM CLR M03/M06 A3050 RMK AO2 SLP355 T10331061
KTVL 100353Z AUTO 21003KT 10SM CLR M03/M06 A3050 RMK AO2 SLP366 T10281056
KTVL 100253Z AUTO 00000KT 10SM CLR M02/M06 A3050 RMK AO2 SLP363 T10171056 53012
KTVL 100153Z AUTO 18003KT 10SM CLR M01/M05 A3048 RMK AO2 SLP352 T10061050